Aérodrome :
LOGIN :

S'inscrire | Disclaimer

   EN    FR    IT 

 










Légende :    VFR   VFR Marginal   IFR   IFR Intensif   IFR Très Intensif
Visi : 
Plafond : 
>= 8 km
>= 3000ft
5 à 8 km
1000 à 3000 ft
1500m à 5 km
500 à 1000 ft
800 à 1500m
200 à 500 ft
< 800m
< 200 ft
Symboles :   Orages  Brouillard  Fortes neiges  Fortes précipitations  Vent > 20 kt
SIGMETs :   Divers  Orages  Givrage  Turbulence  Onde Orograph.  Cendres Volcan.







- Altitude de l'aérodrome : -11 ft
- Code IATA : AMS


EHAM - Amsterdam Schiphol

DERNIER METAR :
  • 240425Z 33001KT 9999 MIFG NSC 01/01 Q1030 NOSIG

METARs EXPIRÉS :
  • 240355Z 32001KT 9999 MIFG NSC 01/00 Q1030 NOSIG
  • 240325Z 33003KT 9999 MIFG NSC 01/01 Q1030 NOSIG
  • 240255Z 28002KT 9999 MIFG NSC 02/02 Q1030 NOSIG
  • 240225Z VRB02KT CAVOK 02/02 Q1031 NOSIG
  • 240155Z VRB01KT CAVOK 02/02 Q1031 NOSIG

TAF TAF EHAM
Valide du 24 à 00h jusqu'au 25 à 06h UTC


232248Z 2400/2506 36005KT CAVOK
PROB30 2401/2407 5000 BR MIFG
BECMG 2410/2413 29010KT
BECMG 2417/2420 23007KT
BECMG 2422/2501 31017G27KT
TEMPO 2500/2503 5000 SHRA RA BKN018 SCT020TCU
Pas de NOTAMs connus pour ce terrain.



MET'MAP, la Météo Aéronautique d'un coup d'oeil ! - Copyright ORBIFLY Décembre 2007 - Disclaimer

ORBIFLY MET'MAP TEAM :

Programmation & Développement : Alexandra Zaïnal
Conception & Développement : Baudouin d'Aumeries
Co-Programmation & Développement : Marc-Olivier Méhu
Soutien technique & logistique : Manuel Goepfert

Contact : metmap@orbifly.com




SOURCES & CREDITS :

   NOAA